Hikarimaru No.17 — JD2956 — position and weather

sailwx.info

Track history (hours):
 
Tides and Currents Weather Stations Pressure Air Temp Water Temp Dewpoint Dewpoint Depression Visibility Wind Speed Wind Dir Waves Ship Positions

Hikarimaru No.17

Last reported at 2016-May-03 08:28 UTC. Time now 2016-May-03 08:47 UTC.
Position N 34°09' E 135°09'.

Length 105 m; draft 5.5 m.

Type: Tanker. MMSI: 431000984.

Date/timePositionNaut miles runAvg speedWind from/ knotsBaromVisibWave heightAir tempDewpointWater temp
2016-May-03 08:28N 34°09' E 135°09'0 0.0
2016-May-03 07:31N 34°09' E 135°09'0 0.0
2016-May-03 06:31N 34°09' E 135°09'0 0.0
2016-May-03 05:31N 34°09' E 135°09'0 0.1
2016-May-03 04:31N 34°09' E 135°09'0 0.0
2016-May-03 03:31N 34°09' E 135°09'0 0.0
2016-May-03 02:31N 34°09' E 135°09'0 0.0
2016-May-03 01:31N 34°09' E 135°09'0 0.0
2016-May-03 00:31N 34°09' E 135°09'0 0.0
2016-May-02 23:31N 34°09' E 135°09'0 0.0
2016-May-02 22:31N 34°09' E 135°09'0 0.0
2016-May-02 21:31N 34°09' E 135°09'0 0.0
2016-May-02 20:31N 34°09' E 135°09'0 0.0
2016-May-02 19:31N 34°09' E 135°09'0 0.0
2016-May-02 18:31N 34°09' E 135°09'0 0.1
2016-May-02 17:31N 34°09' E 135°09'0 0.0
2016-May-02 16:31N 34°09' E 135°09'0 0.0
2016-May-02 15:31N 34°09' E 135°09'0 0.0
2016-May-02 14:28N 34°09' E 135°09'0 0.1
2016-May-02 13:31N 34°09' E 135°09'0 0.0
2016-May-02 12:31N 34°09' E 135°09'0 0.0
2016-May-02 11:31N 34°09' E 135°09'0 0.0
2016-May-02 10:31N 34°09' E 135°09'0 0.0
2016-May-02 09:31N 34°09' E 135°09'5 5.5
2016-May-02 08:33N 34°10' E 135°03'2 1.5
2016-May-02 07:33N 34°10' E 135°05'5 1.3
2016-May-02 03:33N 34°09' E 135°11'2 0.8
2016-May-02 01:31N 34°10' E 135°09'0 0.1
2016-May-02 00:31N 34°10' E 135°09'0 0.0
2016-May-01 23:31N 34°10' E 135°09'0 0.0
2016-May-01 22:31N 34°10' E 135°09'0 0.0
2016-May-01 21:31N 34°10' E 135°09'0 0.0
2016-May-01 20:31N 34°10' E 135°09'0 0.0
2016-May-01 19:31N 34°10' E 135°09'0 0.0
2016-May-01 18:31N 34°10' E 135°09'0 0.0
2016-May-01 17:31N 34°10' E 135°09'0 0.1
2016-May-01 16:31N 34°10' E 135°09'0 0.1
2016-May-01 15:31N 34°10' E 135°09'0 0.0
2016-May-01 14:31N 34°10' E 135°09'0 0.0
2016-May-01 13:28N 34°10' E 135°09'0 0.0
2016-May-01 12:31N 34°10' E 135°09'0 0.0
2016-May-01 11:31N 34°10' E 135°09'0 0.1
2016-May-01 10:31N 34°10' E 135°09'9 9.8
2016-May-01 09:33N 34°15' E 134°60'1211.7
2016-May-01 08:33N 34°27' E 135°01'10 9.4
2016-May-01 07:30N 34°37' E 134°59'  
2016-Apr-26 07:33N 34°36' E 134°55'9 9.3
2016-Apr-26 06:33N 34°35' E 135°06'1512.8
2016-Apr-26 05:25N 34°21' E 135°01'1012.0
2016-Apr-26 04:33N 34°11' E 134°60'8 1.1
2016-Apr-25 21:33N 34°03' E 135°03'8 7.7
2016-Apr-25 20:31N 34°09' E 135°09'0 0.0
2016-Apr-25 19:31N 34°09' E 135°09'0 0.0
2016-Apr-25 18:31N 34°09' E 135°09'0 0.0
2016-Apr-25 17:31N 34°09' E 135°09'0 0.0
2016-Apr-25 16:28N 34°09' E 135°09'0 0.0
2016-Apr-25 15:28N 34°09' E 135°09'0 0.0
2016-Apr-25 14:28N 34°09' E 135°09'0 0.0
2016-Apr-25 13:25N 34°09' E 135°09'0 0.0
2016-Apr-25 12:31N 34°09' E 135°09'0 0.0
2016-Apr-25 11:31N 34°09' E 135°09'0 0.1
2016-Apr-25 10:28N 34°09' E 135°09'0 0.0
2016-Apr-25 09:31N 34°09' E 135°09'0 0.0
2016-Apr-25 08:31N 34°09' E 135°09'0 0.1
2016-Apr-25 07:31N 34°09' E 135°09'0 0.1
2016-Apr-25 06:31N 34°09' E 135°09'2 0.4
2016-Apr-25 00:15N 34°07' E 135°07'6 8.4
2016-Apr-24 23:33N 34°13' E 135°05'3 3.1
2016-Apr-24 22:33N 34°13' E 135°09'0 0.0
2016-Apr-24 21:34N 34°13' E 135°09'0 0.0
2016-Apr-24 20:34N 34°13' E 135°09'0 0.0
2016-Apr-24 19:34N 34°13' E 135°09'0 0.0
2016-Apr-24 18:33N 34°13' E 135°09'0 0.0
2016-Apr-24 17:34N 34°13' E 135°09'0 0.0
2016-Apr-24 16:33N 34°13' E 135°09'0 0.0
2016-Apr-24 15:33N 34°13' E 135°09'0 0.0
2016-Apr-24 14:33N 34°13' E 135°09'0 0.0
2016-Apr-24 13:34N 34°13' E 135°09'0 0.0
2016-Apr-24 12:33N 34°13' E 135°09'0 0.0
2016-Apr-24 11:33N 34°13' E 135°09'0 0.0
2016-Apr-24 10:33N 34°13' E 135°09'0 0.0
2016-Apr-24 09:33N 34°13' E 135°09'0 0.0
2016-Apr-24 08:34N 34°13' E 135°09'0 0.0
2016-Apr-24 07:33N 34°13' E 135°09'0 0.0
2016-Apr-24 06:33N 34°13' E 135°09'0 0.0
2016-Apr-24 05:33N 34°13' E 135°09'0 0.0
2016-Apr-24 04:33N 34°13' E 135°09'0 0.0
2016-Apr-24 03:33N 34°13' E 135°09'0 0.0
2016-Apr-24 02:33N 34°13' E 135°09'0 0.0
2016-Apr-24 01:33N 34°13' E 135°09'0 0.0
2016-Apr-24 00:33N 34°13' E 135°09'0 0.0
2016-Apr-23 23:33N 34°13' E 135°09'0 0.0
2016-Apr-23 22:33N 34°13' E 135°09'0 0.0
2016-Apr-23 21:33N 34°13' E 135°09'0 0.0
2016-Apr-23 20:33N 34°13' E 135°09'0 0.0
2016-Apr-23 19:33N 34°13' E 135°09'0 0.0
2016-Apr-23 18:33N 34°13' E 135°09'0 0.0
2016-Apr-23 17:33N 34°13' E 135°09'0 0.0
2016-Apr-23 16:33N 34°13' E 135°09'0 0.0
2016-Apr-23 15:33N 34°13' E 135°09'0 0.0
2016-Apr-23 14:33N 34°13' E 135°09'0 0.0
2016-Apr-23 13:33N 34°13' E 135°09'0 0.0
2016-Apr-23 12:33N 34°13' E 135°09'0 0.0
2016-Apr-23 11:33N 34°13' E 135°09'0 0.0
2016-Apr-23 10:33N 34°13' E 135°09'0 0.0
2016-Apr-23 09:33N 34°13' E 135°09'0 0.0
2016-Apr-23 08:33N 34°13' E 135°09'  
Track history (hours):
 
Tides and Currents Weather Stations Pressure Air Temp Water Temp Dewpoint Dewpoint Depression Visibility Wind Speed Wind Dir Waves Ship Positions

Hikarimaru No.17

Last reported at 2016-May-03 08:28 UTC. Time now 2016-May-03 08:47 UTC.
Position N 34°09' E 135°09'.

Length 105 m; draft 5.5 m.

Type: Tanker. MMSI: 431000984.

Date/timePositionNaut miles runAvg speedWind from/ knotsBaromVisibWave heightAir tempDewpointWater temp
2016-May-03 08:28N 34°09' E 135°09'0 0.0
2016-May-03 07:31N 34°09' E 135°09'0 0.0
2016-May-03 06:31N 34°09' E 135°09'0 0.0
2016-May-03 05:31N 34°09' E 135°09'0 0.1
2016-May-03 04:31N 34°09' E 135°09'0 0.0
2016-May-03 03:31N 34°09' E 135°09'0 0.0
2016-May-03 02:31N 34°09' E 135°09'0 0.0
2016-May-03 01:31N 34°09' E 135°09'0 0.0
2016-May-03 00:31N 34°09' E 135°09'0 0.0
2016-May-02 23:31N 34°09' E 135°09'0 0.0
2016-May-02 22:31N 34°09' E 135°09'0 0.0
2016-May-02 21:31N 34°09' E 135°09'0 0.0
2016-May-02 20:31N 34°09' E 135°09'0 0.0
2016-May-02 19:31N 34°09' E 135°09'0 0.0
2016-May-02 18:31N 34°09' E 135°09'0 0.1
2016-May-02 17:31N 34°09' E 135°09'0 0.0
2016-May-02 16:31N 34°09' E 135°09'0 0.0
2016-May-02 15:31N 34°09' E 135°09'0 0.0
2016-May-02 14:28N 34°09' E 135°09'0 0.1
2016-May-02 13:31N 34°09' E 135°09'0 0.0
2016-May-02 12:31N 34°09' E 135°09'0 0.0
2016-May-02 11:31N 34°09' E 135°09'0 0.0
2016-May-02 10:31N 34°09' E 135°09'0 0.0
2016-May-02 09:31N 34°09' E 135°09'5 5.5
2016-May-02 08:33N 34°10' E 135°03'2 1.5
2016-May-02 07:33N 34°10' E 135°05'5 1.3
2016-May-02 03:33N 34°09' E 135°11'2 0.8
2016-May-02 01:31N 34°10' E 135°09'0 0.1
2016-May-02 00:31N 34°10' E 135°09'0 0.0
2016-May-01 23:31N 34°10' E 135°09'0 0.0
2016-May-01 22:31N 34°10' E 135°09'0 0.0
2016-May-01 21:31N 34°10' E 135°09'0 0.0
2016-May-01 20:31N 34°10' E 135°09'0 0.0
2016-May-01 19:31N 34°10' E 135°09'0 0.0
2016-May-01 18:31N 34°10' E 135°09'0 0.0
2016-May-01 17:31N 34°10' E 135°09'0 0.1
2016-May-01 16:31N 34°10' E 135°09'0 0.1
2016-May-01 15:31N 34°10' E 135°09'0 0.0
2016-May-01 14:31N 34°10' E 135°09'0 0.0
2016-May-01 13:28N 34°10' E 135°09'0 0.0
2016-May-01 12:31N 34°10' E 135°09'0 0.0
2016-May-01 11:31N 34°10' E 135°09'0 0.1
2016-May-01 10:31N 34°10' E 135°09'9 9.8
2016-May-01 09:33N 34°15' E 134°60'1211.7
2016-May-01 08:33N 34°27' E 135°01'10 9.4
2016-May-01 07:30N 34°37' E 134°59'  
2016-Apr-26 07:33N 34°36' E 134°55'9 9.3
2016-Apr-26 06:33N 34°35' E 135°06'1512.8
2016-Apr-26 05:25N 34°21' E 135°01'1012.0
2016-Apr-26 04:33N 34°11' E 134°60'8 1.1
2016-Apr-25 21:33N 34°03' E 135°03'8 7.7
2016-Apr-25 20:31N 34°09' E 135°09'0 0.0
2016-Apr-25 19:31N 34°09' E 135°09'0 0.0
2016-Apr-25 18:31N 34°09' E 135°09'0 0.0
2016-Apr-25 17:31N 34°09' E 135°09'0 0.0
2016-Apr-25 16:28N 34°09' E 135°09'0 0.0
2016-Apr-25 15:28N 34°09' E 135°09'0 0.0
2016-Apr-25 14:28N 34°09' E 135°09'0 0.0
2016-Apr-25 13:25N 34°09' E 135°09'0 0.0
2016-Apr-25 12:31N 34°09' E 135°09'0 0.0
2016-Apr-25 11:31N 34°09' E 135°09'0 0.1
2016-Apr-25 10:28N 34°09' E 135°09'0 0.0
2016-Apr-25 09:31N 34°09' E 135°09'0 0.0
2016-Apr-25 08:31N 34°09' E 135°09'0 0.1
2016-Apr-25 07:31N 34°09' E 135°09'0 0.1
2016-Apr-25 06:31N 34°09' E 135°09'2 0.4
2016-Apr-25 00:15N 34°07' E 135°07'6 8.4
2016-Apr-24 23:33N 34°13' E 135°05'3 3.1
2016-Apr-24 22:33N 34°13' E 135°09'0 0.0
2016-Apr-24 21:34N 34°13' E 135°09'0 0.0
2016-Apr-24 20:34N 34°13' E 135°09'0 0.0
2016-Apr-24 19:34N 34°13' E 135°09'0 0.0
2016-Apr-24 18:33N 34°13' E 135°09'0 0.0
2016-Apr-24 17:34N 34°13' E 135°09'0 0.0
2016-Apr-24 16:33N 34°13' E 135°09'0 0.0
2016-Apr-24 15:33N 34°13' E 135°09'0 0.0
2016-Apr-24 14:33N 34°13' E 135°09'0 0.0
2016-Apr-24 13:34N 34°13' E 135°09'0 0.0
2016-Apr-24 12:33N 34°13' E 135°09'0 0.0
2016-Apr-24 11:33N 34°13' E 135°09'0 0.0
2016-Apr-24 10:33N 34°13' E 135°09'0 0.0
2016-Apr-24 09:33N 34°13' E 135°09'0 0.0
2016-Apr-24 08:34N 34°13' E 135°09'0 0.0
2016-Apr-24 07:33N 34°13' E 135°09'0 0.0
2016-Apr-24 06:33N 34°13' E 135°09'0 0.0
2016-Apr-24 05:33N 34°13' E 135°09'0 0.0
2016-Apr-24 04:33N 34°13' E 135°09'0 0.0
2016-Apr-24 03:33N 34°13' E 135°09'0 0.0
2016-Apr-24 02:33N 34°13' E 135°09'0 0.0
2016-Apr-24 01:33N 34°13' E 135°09'0 0.0
2016-Apr-24 00:33N 34°13' E 135°09'0 0.0
2016-Apr-23 23:33N 34°13' E 135°09'0 0.0
2016-Apr-23 22:33N 34°13' E 135°09'0 0.0
2016-Apr-23 21:33N 34°13' E 135°09'0 0.0
2016-Apr-23 20:33N 34°13' E 135°09'0 0.0
2016-Apr-23 19:33N 34°13' E 135°09'0 0.0
2016-Apr-23 18:33N 34°13' E 135°09'0 0.0
2016-Apr-23 17:33N 34°13' E 135°09'0 0.0
2016-Apr-23 16:33N 34°13' E 135°09'0 0.0
2016-Apr-23 15:33N 34°13' E 135°09'0 0.0
2016-Apr-23 14:33N 34°13' E 135°09'0 0.0
2016-Apr-23 13:33N 34°13' E 135°09'0 0.0
2016-Apr-23 12:33N 34°13' E 135°09'0 0.0
2016-Apr-23 11:33N 34°13' E 135°09'0 0.0
2016-Apr-23 10:33N 34°13' E 135°09'0 0.0
2016-Apr-23 09:33N 34°13' E 135°09'0 0.0
2016-Apr-23 08:33N 34°13' E 135°09'  

Dump ship's entire track history